sensor_id;sensor_type;location;lat;lon;timestamp;pressure;altitude;pressure_sealevel;temperature;humidity
80149;BME280;69473;42.426;26.644;2024-02-28T00:02:09;99528.63;;;5.75;80.55
80149;BME280;69473;42.426;26.644;2024-02-28T00:04:34;99537.97;;;5.71;80.46
80149;BME280;69473;42.426;26.644;2024-02-28T00:07:00;99537.03;;;5.68;79.94
80149;BME280;69473;42.426;26.644;2024-02-28T00:09:26;99543.75;;;5.63;79.27
80149;BME280;69473;42.426;26.644;2024-02-28T00:11:51;99541.88;;;5.57;79.60
80149;BME280;69473;42.426;26.644;2024-02-28T00:14:17;99542.56;;;5.50;80.15
80149;BME280;69473;42.426;26.644;2024-02-28T00:16:43;99556.34;;;5.52;79.47
80149;BME280;69473;42.426;26.644;2024-02-28T00:19:10;99551.03;;;5.46;79.03
80149;BME280;69473;42.426;26.644;2024-02-28T00:21:39;99554.50;;;5.48;79.57
80149;BME280;69473;42.426;26.644;2024-02-28T00:24:06;99546.53;;;5.37;80.19
80149;BME280;69473;42.426;26.644;2024-02-28T00:26:31;99551.50;;;5.31;80.30
80149;BME280;69473;42.426;26.644;2024-02-28T00:28:57;99544.47;;;5.24;81.91
80149;BME280;69473;42.426;26.644;2024-02-28T00:31:23;99548.78;;;5.26;82.11
80149;BME280;69473;42.426;26.644;2024-02-28T00:33:48;99548.34;;;5.41;83.02
80149;BME280;69473;42.426;26.644;2024-02-28T00:36:14;99556.09;;;5.43;82.22
80149;BME280;69473;42.426;26.644;2024-02-28T00:38:43;99553.53;;;5.43;83.71
80149;BME280;69473;42.426;26.644;2024-02-28T00:41:09;99556.25;;;5.49;82.14
80149;BME280;69473;42.426;26.644;2024-02-28T00:43:34;99545.97;;;5.49;81.88
80149;BME280;69473;42.426;26.644;2024-02-28T00:46:00;99546.13;;;5.55;81.83
80149;BME280;69473;42.426;26.644;2024-02-28T00:48:26;99547.78;;;5.53;81.85
80149;BME280;69473;42.426;26.644;2024-02-28T00:50:54;99544.34;;;5.52;82.82
80149;BME280;69473;42.426;26.644;2024-02-28T00:53:20;99544.38;;;5.54;81.87
80149;BME280;69473;42.426;26.644;2024-02-28T00:55:46;99535.47;;;5.40;81.72
80149;BME280;69473;42.426;26.644;2024-02-28T00:58:11;99545.72;;;5.40;81.27
80149;BME280;69473;42.426;26.644;2024-02-28T01:00:37;99533.94;;;5.48;80.87
80149;BME280;69473;42.426;26.644;2024-02-28T01:03:03;99539.75;;;5.41;80.55
80149;BME280;69473;42.426;26.644;2024-02-28T01:05:34;99535.22;;;5.30;81.23
80149;BME280;69473;42.426;26.644;2024-02-28T01:08:00;99535.22;;;5.30;80.10
80149;BME280;69473;42.426;26.644;2024-02-28T01:10:26;99533.53;;;5.32;80.61
80149;BME280;69473;42.426;26.644;2024-02-28T01:12:51;99539.09;;;5.16;80.70
80149;BME280;69473;42.426;26.644;2024-02-28T01:15:17;99543.34;;;5.14;80.49
80149;BME280;69473;42.426;26.644;2024-02-28T01:17:42;99540.19;;;5.24;80.19
80149;BME280;69473;42.426;26.644;2024-02-28T01:20:08;99530.97;;;5.32;81.20
80149;BME280;69473;42.426;26.644;2024-02-28T01:22:34;99533.69;;;5.39;81.62
80149;BME280;69473;42.426;26.644;2024-02-28T01:25:02;99532.03;;;5.39;80.87
80149;BME280;69473;42.426;26.644;2024-02-28T01:27:28;99539.19;;;5.19;80.19
80149;BME280;69473;42.426;26.644;2024-02-28T01:29:53;99544.13;;;5.12;80.55
80149;BME280;69473;42.426;26.644;2024-02-28T01:32:19;99534.38;;;5.00;81.23
80149;BME280;69473;42.426;26.644;2024-02-28T01:34:45;99539.50;;;5.00;80.98
80149;BME280;69473;42.426;26.644;2024-02-28T01:37:11;99537.84;;;5.02;80.34
80149;BME280;69473;42.426;26.644;2024-02-28T01:39:37;99541.16;;;4.98;81.54
80149;BME280;69473;42.426;26.644;2024-02-28T01:42:03;99539.31;;;4.94;81.14
80149;BME280;69473;42.426;26.644;2024-02-28T01:44:28;99542.72;;;4.93;80.82
80149;BME280;69473;42.426;26.644;2024-02-28T01:46:54;99542.66;;;4.91;81.44
80149;BME280;69473;42.426;26.644;2024-02-28T01:49:23;99530.78;;;4.95;80.87
80149;BME280;69473;42.426;26.644;2024-02-28T01:51:49;99539.59;;;5.03;80.13
80149;BME280;69473;42.426;26.644;2024-02-28T01:54:16;99543.72;;;4.98;80.91
80149;BME280;69473;42.426;26.644;2024-02-28T01:56:43;99541.97;;;4.97;80.99
80149;BME280;69473;42.426;26.644;2024-02-28T01:59:10;99544.56;;;4.97;80.82
80149;BME280;69473;42.426;26.644;2024-02-28T02:01:37;99546.09;;;4.92;80.31
80149;BME280;69473;42.426;26.644;2024-02-28T02:04:04;99549.50;;;4.91;79.88
80149;BME280;69473;42.426;26.644;2024-02-28T02:06:31;99552.75;;;4.83;80.06
80149;BME280;69473;42.426;26.644;2024-02-28T02:08:57;99559.59;;;4.84;81.11
80149;BME280;69473;42.426;26.644;2024-02-28T02:11:23;99557.69;;;4.77;82.01
80149;BME280;69473;42.426;26.644;2024-02-28T02:13:51;99551.06;;;4.85;81.38
80149;BME280;69473;42.426;26.644;2024-02-28T02:16:18;99552.16;;;4.94;81.45
80149;BME280;69473;42.426;26.644;2024-02-28T02:18:44;99551.41;;;4.98;81.94
80149;BME280;69473;42.426;26.644;2024-02-28T02:21:13;99556.56;;;4.98;82.01
80149;BME280;69473;42.426;26.644;2024-02-28T02:23:40;99551.25;;;4.92;80.77
80149;BME280;69473;42.426;26.644;2024-02-28T02:26:07;99548.50;;;4.85;82.12
80149;BME280;69473;42.426;26.644;2024-02-28T02:28:33;99552.56;;;4.77;81.90
80149;BME280;69473;42.426;26.644;2024-02-28T02:30:59;99560.00;;;4.68;81.99
80149;BME280;69473;42.426;26.644;2024-02-28T02:33:24;99554.09;;;4.72;82.54
80149;BME280;69473;42.426;26.644;2024-02-28T02:35:52;99557.50;;;4.71;81.41
80149;BME280;69473;42.426;26.644;2024-02-28T02:38:18;99556.59;;;4.69;81.72
80149;BME280;69473;42.426;26.644;2024-02-28T02:40:43;99556.66;;;4.71;82.20
80149;BME280;69473;42.426;26.644;2024-02-28T02:43:09;99556.69;;;4.72;81.97
80149;BME280;69473;42.426;26.644;2024-02-28T02:45:35;99554.09;;;4.72;82.78
80149;BME280;69473;42.426;26.644;2024-02-28T02:48:01;99558.69;;;4.82;82.79
80149;BME280;69473;42.426;26.644;2024-02-28T02:50:26;99557.09;;;4.86;82.14
80149;BME280;69473;42.426;26.644;2024-02-28T02:52:52;99557.78;;;4.80;80.80
80149;BME280;69473;42.426;26.644;2024-02-28T02:55:17;99561.06;;;4.76;81.35
80149;BME280;69473;42.426;26.644;2024-02-28T02:57:43;99554.94;;;4.71;81.18
80149;BME280;69473;42.426;26.644;2024-02-28T03:00:09;99557.50;;;4.71;81.36
80149;BME280;69473;42.426;26.644;2024-02-28T03:02:35;99565.94;;;4.67;81.13
80149;BME280;69473;42.426;26.644;2024-02-28T03:05:04;99561.72;;;4.69;81.00
80149;BME280;69473;42.426;26.644;2024-02-28T03:07:30;99559.81;;;4.62;81.08
80149;BME280;69473;42.426;26.644;2024-02-28T03:09:55;99572.34;;;4.53;79.69
80149;BME280;69473;42.426;26.644;2024-02-28T03:12:21;99559.00;;;4.36;79.63
80149;BME280;69473;42.426;26.644;2024-02-28T03:14:48;99573.38;;;4.31;80.69
80149;BME280;69473;42.426;26.644;2024-02-28T03:17:13;99567.53;;;4.35;81.32
80149;BME280;69473;42.426;26.644;2024-02-28T03:19:41;99571.78;;;4.34;80.88
80149;BME280;69473;42.426;26.644;2024-02-28T03:22:06;99570.06;;;4.33;81.11
80149;BME280;69473;42.426;26.644;2024-02-28T03:24:32;99566.84;;;4.40;81.54
80149;BME280;69473;42.426;26.644;2024-02-28T03:27:03;99572.34;;;4.53;81.89
80149;BME280;69473;42.426;26.644;2024-02-28T03:29:29;99580.06;;;4.53;81.81
80149;BME280;69473;42.426;26.644;2024-02-28T03:31:55;99584.16;;;4.48;81.94
80149;BME280;69473;42.426;26.644;2024-02-28T03:34:21;99580.59;;;4.43;81.44
80149;BME280;69473;42.426;26.644;2024-02-28T03:36:46;99574.44;;;4.37;82.40
80149;BME280;69473;42.426;26.644;2024-02-28T03:39:12;99588.22;;;4.39;82.46
80149;BME280;69473;42.426;26.644;2024-02-28T03:41:38;99587.47;;;4.44;81.53
80149;BME280;69473;42.426;26.644;2024-02-28T03:44:05;99588.44;;;4.47;81.47
80149;BME280;69473;42.426;26.644;2024-02-28T03:46:31;99589.16;;;4.43;81.58
80149;BME280;69473;42.426;26.644;2024-02-28T03:48:56;99582.25;;;4.40;80.76
80149;BME280;69473;42.426;26.644;2024-02-28T03:51:22;99586.59;;;4.43;81.11
80149;BME280;69473;42.426;26.644;2024-02-28T03:53:48;99599.28;;;4.38;80.72
80149;BME280;69473;42.426;26.644;2024-02-28T03:56:24;99593.66;;;4.23;81.52
80149;BME280;69473;42.426;26.644;2024-02-28T03:58:51;99595.03;;;4.12;81.65
80149;BME280;69473;42.426;26.644;2024-02-28T04:01:17;99594.91;;;4.09;82.48
80149;BME280;69473;42.426;26.644;2024-02-28T04:03:42;99603.50;;;4.11;82.38
80149;BME280;69473;42.426;26.644;2024-02-28T04:06:08;99605.19;;;4.09;82.94
80149;BME280;69473;42.426;26.644;2024-02-28T04:08:34;99610.25;;;4.07;83.04
80149;BME280;69473;42.426;26.644;2024-02-28T04:10:59;99611.31;;;4.14;83.61
80149;BME280;69473;42.426;26.644;2024-02-28T04:13:25;99615.75;;;4.18;83.16
80149;BME280;69473;42.426;26.644;2024-02-28T04:15:51;99615.75;;;4.18;83.55
80149;BME280;69473;42.426;26.644;2024-02-28T04:18:16;99619.31;;;4.23;82.78
80149;BME280;69473;42.426;26.644;2024-02-28T04:20:42;99614.88;;;4.18;82.84
80149;BME280;69473;42.426;26.644;2024-02-28T04:23:07;99614.19;;;4.23;82.74
80149;BME280;69473;42.426;26.644;2024-02-28T04:25:33;99612.53;;;4.25;83.29
80149;BME280;69473;42.426;26.644;2024-02-28T04:27:59;99612.44;;;4.22;83.43
80149;BME280;69473;42.426;26.644;2024-02-28T04:30:25;99614.19;;;4.23;82.92
80149;BME280;69473;42.426;26.644;2024-02-28T04:32:50;99605.88;;;4.30;83.48
80149;BME280;69473;42.426;26.644;2024-02-28T04:35:16;99607.59;;;4.31;83.40
80149;BME280;69473;42.426;26.644;2024-02-28T04:37:46;99615.53;;;4.12;82.42
80149;BME280;69473;42.426;26.644;2024-02-28T04:40:13;99610.41;;;4.12;83.26
80149;BME280;69473;42.426;26.644;2024-02-28T04:42:39;99604.22;;;4.05;83.67
80149;BME280;69473;42.426;26.644;2024-02-28T04:45:05;99605.88;;;4.05;83.81
80149;BME280;69473;42.426;26.644;2024-02-28T04:47:31;99611.63;;;3.98;82.83
80149;BME280;69473;42.426;26.644;2024-02-28T04:49:57;99605.06;;;4.06;83.92
80149;BME280;69473;42.426;26.644;2024-02-28T04:52:23;99607.00;;;4.13;83.75
80149;BME280;69473;42.426;26.644;2024-02-28T04:54:50;99614.72;;;4.13;83.66
80149;BME280;69473;42.426;26.644;2024-02-28T04:57:16;99605.38;;;4.15;82.34
80149;BME280;69473;42.426;26.644;2024-02-28T04:59:45;99610.41;;;4.12;83.41
80149;BME280;69473;42.426;26.644;2024-02-28T05:02:12;99619.31;;;4.23;83.87
80149;BME280;69473;42.426;26.644;2024-02-28T05:04:37;99624.94;;;4.38;83.80
80149;BME280;69473;42.426;26.644;2024-02-28T05:07:03;99625.13;;;4.45;84.00
80149;BME280;69473;42.426;26.644;2024-02-28T05:09:29;99629.41;;;4.44;82.49
80149;BME280;69473;42.426;26.644;2024-02-28T05:11:55;99638.13;;;4.49;82.03
80149;BME280;69473;42.426;26.644;2024-02-28T05:14:20;99630.66;;;4.57;81.79
80149;BME280;69473;42.426;26.644;2024-02-28T05:16:49;99632.41;;;4.58;82.48
80149;BME280;69473;42.426;26.644;2024-02-28T05:19:14;99632.75;;;4.70;81.75
80149;BME280;69473;42.426;26.644;2024-02-28T05:21:43;99626.38;;;4.84;81.76
80149;BME280;69473;42.426;26.644;2024-02-28T05:24:08;99636.16;;;4.98;81.05
80149;BME280;69473;42.426;26.644;2024-02-28T05:26:35;99642.41;;;5.06;80.90
80149;BME280;69473;42.426;26.644;2024-02-28T05:29:02;99649.56;;;5.16;81.24
80149;BME280;69473;42.426;26.644;2024-02-28T05:31:28;99644.78;;;5.28;80.31
80149;BME280;69473;42.426;26.644;2024-02-28T05:33:56;99639.81;;;5.35;81.50
80149;BME280;69473;42.426;26.644;2024-02-28T05:36:27;99643.66;;;5.49;80.75
80149;BME280;69473;42.426;26.644;2024-02-28T05:38:54;99647.47;;;5.63;80.86
80149;BME280;69473;42.426;26.644;2024-02-28T05:41:20;99658.25;;;5.82;80.33
80149;BME280;69473;42.426;26.644;2024-02-28T05:43:47;99658.84;;;6.03;78.78
80149;BME280;69473;42.426;26.644;2024-02-28T05:46:16;99660.97;;;6.19;78.54
80149;BME280;69473;42.426;26.644;2024-02-28T05:48:45;99666.44;;;6.32;78.10
80149;BME280;69473;42.426;26.644;2024-02-28T05:51:12;99666.09;;;6.53;77.93
80149;BME280;69473;42.426;26.644;2024-02-28T05:53:39;99672.31;;;6.62;77.67
80149;BME280;69473;42.426;26.644;2024-02-28T05:56:09;99662.81;;;6.58;78.29
80149;BME280;69473;42.426;26.644;2024-02-28T05:58:39;99671.16;;;6.86;78.24
80149;BME280;69473;42.426;26.644;2024-02-28T06:01:05;99668.53;;;6.83;78.31
80149;BME280;69473;42.426;26.644;2024-02-28T06:03:32;99677.47;;;6.99;77.49
80149;BME280;69473;42.426;26.644;2024-02-28T06:05:58;99681.59;;;7.31;77.59
80149;BME280;69473;42.426;26.644;2024-02-28T06:08:24;99679.13;;;7.36;77.51
80149;BME280;69473;42.426;26.644;2024-02-28T06:10:49;99687.28;;;7.56;77.17
80149;BME280;69473;42.426;26.644;2024-02-28T06:13:15;99690.34;;;7.79;76.21
80149;BME280;69473;42.426;26.644;2024-02-28T06:15:40;99691.50;;;7.96;76.38
80149;BME280;69473;42.426;26.644;2024-02-28T06:18:07;99691.03;;;8.19;75.21
80149;BME280;69473;42.426;26.644;2024-02-28T06:20:32;99693.75;;;8.25;74.96
80149;BME280;69473;42.426;26.644;2024-02-28T06:22:58;99693.31;;;8.47;74.49
80149;BME280;69473;42.426;26.644;2024-02-28T06:25:23;99692.09;;;8.80;72.97
80149;BME280;69473;42.426;26.644;2024-02-28T06:27:50;99695.56;;;8.79;73.00
80149;BME280;69473;42.426;26.644;2024-02-28T06:30:16;99687.66;;;8.70;73.12
80149;BME280;69473;42.426;26.644;2024-02-28T06:32:45;99683.41;;;8.75;72.94
80149;BME280;69473;42.426;26.644;2024-02-28T06:35:10;99684.25;;;9.33;71.82
80149;BME280;69473;42.426;26.644;2024-02-28T06:37:36;99686.31;;;9.62;69.35
80149;BME280;69473;42.426;26.644;2024-02-28T06:40:05;99680.38;;;9.66;70.75
80149;BME280;69473;42.426;26.644;2024-02-28T06:42:32;99682.31;;;9.85;68.96
80149;BME280;69473;42.426;26.644;2024-02-28T06:44:59;99675.06;;;10.34;67.82
80149;BME280;69473;42.426;26.644;2024-02-28T06:47:25;99667.91;;;11.26;63.86
80149;BME280;69473;42.426;26.644;2024-02-28T06:49:50;99679.25;;;11.44;63.43
80149;BME280;69473;42.426;26.644;2024-02-28T06:52:17;99669.78;;;11.53;62.53
80149;BME280;69473;42.426;26.644;2024-02-28T06:54:42;99681.22;;;11.97;62.66
80149;BME280;69473;42.426;26.644;2024-02-28T06:57:08;99681.28;;;12.28;61.21
80149;BME280;69473;42.426;26.644;2024-02-28T06:59:34;99684.63;;;11.90;63.27
80149;BME280;69473;42.426;26.644;2024-02-28T07:01:59;99680.38;;;12.02;63.04
80149;BME280;69473;42.426;26.644;2024-02-28T07:04:25;99676.06;;;12.61;61.29
80149;BME280;69473;42.426;26.644;2024-02-28T07:06:51;99676.00;;;13.23;59.17
80149;BME280;69473;42.426;26.644;2024-02-28T07:09:17;99674.28;;;13.31;58.55
80149;BME280;69473;42.426;26.644;2024-02-28T07:11:42;99677.72;;;13.36;59.18
80149;BME280;69473;42.426;26.644;2024-02-28T07:14:08;99671.38;;;15.08;54.28
80149;BME280;69473;42.426;26.644;2024-02-28T07:16:33;99670.34;;;15.97;50.72
80149;BME280;69473;42.426;26.644;2024-02-28T07:19:00;99669.50;;;16.52;48.93
80149;BME280;69473;42.426;26.644;2024-02-28T07:21:26;99664.22;;;16.55;48.95
80149;BME280;69473;42.426;26.644;2024-02-28T07:23:52;99664.78;;;17.23;47.32
80149;BME280;69473;42.426;26.644;2024-02-28T07:26:18;99675.59;;;17.51;46.83
80149;BME280;69473;42.426;26.644;2024-02-28T07:28:44;99682.28;;;18.08;44.93
80149;BME280;69473;42.426;26.644;2024-02-28T07:31:18;99685.19;;;17.06;47.81
80149;BME280;69473;42.426;26.644;2024-02-28T07:33:45;99679.94;;;16.55;49.06
80149;BME280;69473;42.426;26.644;2024-02-28T07:36:11;99677.56;;;16.39;49.59
80149;BME280;69473;42.426;26.644;2024-02-28T07:38:37;99674.84;;;16.46;49.00
80149;BME280;69473;42.426;26.644;2024-02-28T07:41:04;99680.91;;;16.48;50.18
80149;BME280;69473;42.426;26.644;2024-02-28T07:43:30;99685.94;;;16.03;50.78
80149;BME280;69473;42.426;26.644;2024-02-28T07:46:02;99683.38;;;16.00;50.35
80149;BME280;69473;42.426;26.644;2024-02-28T07:48:27;99686.84;;;15.26;52.89
80149;BME280;69473;42.426;26.644;2024-02-28T07:50:53;99677.75;;;15.61;51.51
80149;BME280;69473;42.426;26.644;2024-02-28T07:53:18;99689.53;;;15.96;52.01
80149;BME280;69473;42.426;26.644;2024-02-28T07:55:44;99679.28;;;15.80;51.25
80149;BME280;69473;42.426;26.644;2024-02-28T07:58:10;99684.00;;;16.17;50.85
80149;BME280;69473;42.426;26.644;2024-02-28T08:00:36;99683.78;;;16.32;49.97
80149;BME280;69473;42.426;26.644;2024-02-28T08:03:01;99682.22;;;17.68;45.73
80149;BME280;69473;42.426;26.644;2024-02-28T08:05:27;99679.03;;;20.27;40.39
80149;BME280;69473;42.426;26.644;2024-02-28T08:07:53;99670.97;;;21.85;37.40
80149;BME280;69473;42.426;26.644;2024-02-28T08:10:19;99674.44;;;23.95;34.16
80149;BME280;69473;42.426;26.644;2024-02-28T08:12:45;99667.38;;;25.38;30.77
80149;BME280;69473;42.426;26.644;2024-02-28T08:15:10;99669.78;;;25.75;29.35
80149;BME280;69473;42.426;26.644;2024-02-28T08:17:36;99667.09;;;27.01;28.04
80149;BME280;69473;42.426;26.644;2024-02-28T08:20:05;99662.25;;;27.80;26.80
80149;BME280;69473;42.426;26.644;2024-02-28T08:22:31;99674.63;;;28.23;26.26
80149;BME280;69473;42.426;26.644;2024-02-28T08:24:57;99664.78;;;27.82;27.01
80149;BME280;69473;42.426;26.644;2024-02-28T08:27:22;99670.22;;;27.52;26.69
80149;BME280;69473;42.426;26.644;2024-02-28T08:29:51;99663.66;;;28.42;25.80
80149;BME280;69473;42.426;26.644;2024-02-28T08:32:18;99671.97;;;28.90;25.26
80149;BME280;69473;42.426;26.644;2024-02-28T08:34:44;99673.84;;;29.15;25.26
80149;BME280;69473;42.426;26.644;2024-02-28T08:37:12;99677.25;;;29.04;24.81
80149;BME280;69473;42.426;26.644;2024-02-28T08:39:37;99673.97;;;29.26;25.18
80149;BME280;69473;42.426;26.644;2024-02-28T08:42:03;99664.50;;;30.82;22.95
80149;BME280;69473;42.426;26.644;2024-02-28T08:44:29;99664.13;;;31.56;22.16
80149;BME280;69473;42.426;26.644;2024-02-28T08:46:54;99664.38;;;31.75;22.28
80149;BME280;69473;42.426;26.644;2024-02-28T08:49:20;99664.22;;;32.22;21.05
80149;BME280;69473;42.426;26.644;2024-02-28T08:51:45;99658.09;;;30.72;22.30
80149;BME280;69473;42.426;26.644;2024-02-28T08:54:11;99659.06;;;29.86;23.65
80149;BME280;69473;42.426;26.644;2024-02-28T08:56:37;99664.19;;;28.87;24.09
80149;BME280;69473;42.426;26.644;2024-02-28T08:59:03;99668.41;;;29.42;24.06
80149;BME280;69473;42.426;26.644;2024-02-28T09:01:28;99667.53;;;30.17;23.24
80149;BME280;69473;42.426;26.644;2024-02-28T09:03:54;99669.50;;;30.02;23.54
80149;BME280;69473;42.426;26.644;2024-02-28T09:06:19;99672.34;;;30.48;22.87
80149;BME280;69473;42.426;26.644;2024-02-28T09:08:45;99672.41;;;31.41;22.69
80149;BME280;69473;42.426;26.644;2024-02-28T09:11:10;99671.56;;;30.35;22.79
80149;BME280;69473;42.426;26.644;2024-02-28T09:13:36;99675.28;;;31.27;21.76
80149;BME280;69473;42.426;26.644;2024-02-28T09:16:02;99668.16;;;31.39;21.29
80149;BME280;69473;42.426;26.644;2024-02-28T09:18:28;99663.09;;;32.88;20.47
80149;BME280;69473;42.426;26.644;2024-02-28T09:20:53;99679.88;;;33.74;19.44
80149;BME280;69473;42.426;26.644;2024-02-28T09:23:19;99676.44;;;32.03;20.69
80149;BME280;69473;42.426;26.644;2024-02-28T09:25:45;99674.56;;;33.32;19.86
80149;BME280;69473;42.426;26.644;2024-02-28T09:28:10;99666.72;;;32.99;19.37
80149;BME280;69473;42.426;26.644;2024-02-28T09:30:39;99654.19;;;33.51;19.49
80149;BME280;69473;42.426;26.644;2024-02-28T09:33:05;99654.75;;;32.50;19.74
80149;BME280;69473;42.426;26.644;2024-02-28T09:35:31;99650.72;;;34.20;18.75
80149;BME280;69473;42.426;26.644;2024-02-28T09:37:56;99657.72;;;33.51;19.51
80149;BME280;69473;42.426;26.644;2024-02-28T09:40:22;99655.28;;;34.97;18.35
80149;BME280;69473;42.426;26.644;2024-02-28T09:43:01;99653.16;;;34.52;18.59
80149;BME280;69473;42.426;26.644;2024-02-28T09:45:30;99651.28;;;34.23;18.60
80149;BME280;69473;42.426;26.644;2024-02-28T09:48:00;99655.16;;;33.80;19.08
80149;BME280;69473;42.426;26.644;2024-02-28T09:50:27;99653.50;;;33.07;19.35
80149;BME280;69473;42.426;26.644;2024-02-28T09:52:56;99649.59;;;33.72;19.57
80149;BME280;69473;42.426;26.644;2024-02-28T09:55:21;99645.09;;;33.83;19.11
80149;BME280;69473;42.426;26.644;2024-02-28T09:57:52;99645.16;;;30.54;22.47
80149;BME280;69473;42.426;26.644;2024-02-28T10:00:20;99652.53;;;27.36;25.94
80149;BME280;69473;42.426;26.644;2024-02-28T10:02:50;99647.91;;;25.54;29.16
80149;BME280;69473;42.426;26.644;2024-02-28T10:05:17;99654.94;;;23.58;31.57
80149;BME280;69473;42.426;26.644;2024-02-28T10:07:47;99651.66;;;22.93;32.93
80149;BME280;69473;42.426;26.644;2024-02-28T10:10:12;99648.97;;;22.30;34.85
80149;BME280;69473;42.426;26.644;2024-02-28T10:12:42;99644.81;;;21.79;35.15
80149;BME280;69473;42.426;26.644;2024-02-28T10:15:10;99652.16;;;21.71;35.28
80149;BME280;69473;42.426;26.644;2024-02-28T10:17:36;99652.75;;;21.56;35.26
80149;BME280;69473;42.426;26.644;2024-02-28T10:20:03;99642.59;;;21.20;36.19
80149;BME280;69473;42.426;26.644;2024-02-28T10:22:36;99644.81;;;20.56;37.08
80149;BME280;69473;42.426;26.644;2024-02-28T10:25:02;99643.63;;;20.66;37.67
80149;BME280;69473;42.426;26.644;2024-02-28T10:27:32;99640.75;;;20.45;37.75
80149;BME280;69473;42.426;26.644;2024-02-28T10:29:59;99641.34;;;19.99;38.25
80149;BME280;69473;42.426;26.644;2024-02-28T10:32:24;99644.22;;;19.91;37.94
80149;BME280;69473;42.426;26.644;2024-02-28T10:34:51;99636.25;;;19.65;37.93
80149;BME280;69473;42.426;26.644;2024-02-28T10:37:19;99644.34;;;19.57;38.08
80149;BME280;69473;42.426;26.644;2024-02-28T10:39:48;99632.16;;;19.84;38.57
80149;BME280;69473;42.426;26.644;2024-02-28T10:42:14;99630.91;;;19.68;37.32
80149;BME280;69473;42.426;26.644;2024-02-28T10:44:41;99628.25;;;19.38;37.25
80149;BME280;69473;42.426;26.644;2024-02-28T10:47:08;99635.72;;;19.52;37.06
80149;BME280;69473;42.426;26.644;2024-02-28T10:49:33;99621.72;;;19.81;36.81
80149;BME280;69473;42.426;26.644;2024-02-28T10:51:59;99613.50;;;20.20;36.77
80149;BME280;69473;42.426;26.644;2024-02-28T10:54:29;99616.53;;;20.34;36.80
80149;BME280;69473;42.426;26.644;2024-02-28T10:56:57;99612.28;;;20.03;36.53
80149;BME280;69473;42.426;26.644;2024-02-28T10:59:25;99599.06;;;19.77;37.37
80149;BME280;69473;42.426;26.644;2024-02-28T11:01:53;99601.97;;;19.68;37.22
80149;BME280;69473;42.426;26.644;2024-02-28T11:04:19;99609.84;;;19.38;37.45
80149;BME280;69473;42.426;26.644;2024-02-28T11:06:54;99598.44;;;19.08;38.19
80149;BME280;69473;42.426;26.644;2024-02-28T11:09:25;99601.00;;;19.41;39.31
80149;BME280;69473;42.426;26.644;2024-02-28T11:11:52;99600.13;;;19.40;38.66
80149;BME280;69473;42.426;26.644;2024-02-28T11:14:19;99599.03;;;19.18;38.77
80149;BME280;69473;42.426;26.644;2024-02-28T11:17:03;99590.75;;;19.31;38.92
80149;BME280;69473;42.426;26.644;2024-02-28T11:19:31;99577.31;;;19.42;38.83
80149;BME280;69473;42.426;26.644;2024-02-28T11:21:59;99585.88;;;18.88;38.93
80149;BME280;69473;42.426;26.644;2024-02-28T11:24:29;99580.16;;;19.03;39.30
80149;BME280;69473;42.426;26.644;2024-02-28T11:26:56;99576.84;;;18.64;40.13
80149;BME280;69473;42.426;26.644;2024-02-28T11:29:28;99579.88;;;18.83;39.35
80149;BME280;69473;42.426;26.644;2024-02-28T11:31:55;99579.31;;;19.03;38.84
80149;BME280;69473;42.426;26.644;2024-02-28T11:34:21;99575.88;;;19.32;38.33
80149;BME280;69473;42.426;26.644;2024-02-28T11:36:51;99571.13;;;19.43;38.92
80149;BME280;69473;42.426;26.644;2024-02-28T11:39:18;99565.78;;;19.46;39.36
80149;BME280;69473;42.426;26.644;2024-02-28T11:41:46;99572.69;;;19.21;40.27
80149;BME280;69473;42.426;26.644;2024-02-28T11:44:16;99568.53;;;19.12;40.16
80149;BME280;69473;42.426;26.644;2024-02-28T11:46:46;99569.41;;;19.12;40.01
80149;BME280;69473;42.426;26.644;2024-02-28T11:49:12;99568.19;;;18.93;40.58
80149;BME280;69473;42.426;26.644;2024-02-28T11:51:43;99564.34;;;19.36;39.89
80149;BME280;69473;42.426;26.644;2024-02-28T11:54:09;99562.34;;;19.14;39.30
80149;BME280;69473;42.426;26.644;2024-02-28T11:56:37;99564.81;;;19.50;39.39
80149;BME280;69473;42.426;26.644;2024-02-28T11:59:03;99555.56;;;19.67;38.52
80149;BME280;69473;42.426;26.644;2024-02-28T12:01:38;99563.03;;;18.90;40.20
80149;BME280;69473;42.426;26.644;2024-02-28T12:04:05;99556.09;;;18.20;41.48
80149;BME280;69473;42.426;26.644;2024-02-28T12:06:34;99544.78;;;17.83;42.67
80149;BME280;69473;42.426;26.644;2024-02-28T12:09:08;99547.78;;;17.64;42.82
80149;BME280;69473;42.426;26.644;2024-02-28T12:11:35;99555.13;;;17.48;43.26
80149;BME280;69473;42.426;26.644;2024-02-28T12:14:04;99543.72;;;17.51;41.38
80149;BME280;69473;42.426;26.644;2024-02-28T12:16:32;99539.25;;;17.95;40.29
80149;BME280;69473;42.426;26.644;2024-02-28T12:18:58;99538.41;;;18.29;40.95
80149;BME280;69473;42.426;26.644;2024-02-28T12:21:23;99528.84;;;18.60;40.79
80149;BME280;69473;42.426;26.644;2024-02-28T12:23:49;99534.13;;;18.91;38.84
80149;BME280;69473;42.426;26.644;2024-02-28T12:26:20;99522.22;;;19.09;38.38
80149;BME280;69473;42.426;26.644;2024-02-28T12:28:45;99525.94;;;19.02;38.68
80149;BME280;69473;42.426;26.644;2024-02-28T12:31:11;99521.69;;;18.98;38.05
80149;BME280;69473;42.426;26.644;2024-02-28T12:33:38;99520.94;;;18.93;37.81
80149;BME280;69473;42.426;26.644;2024-02-28T12:36:05;99511.78;;;19.06;38.34
80149;BME280;69473;42.426;26.644;2024-02-28T12:38:31;99505.84;;;19.01;38.86
80149;BME280;69473;42.426;26.644;2024-02-28T12:40:57;99514.78;;;18.61;38.87
80149;BME280;69473;42.426;26.644;2024-02-28T12:43:23;99510.19;;;18.37;39.48
80149;BME280;69473;42.426;26.644;2024-02-28T12:45:50;99506.00;;;18.62;39.23
80149;BME280;69473;42.426;26.644;2024-02-28T12:48:16;99506.97;;;18.92;38.98
80149;BME280;69473;42.426;26.644;2024-02-28T12:50:41;99503.81;;;18.80;39.17
80149;BME280;69473;42.426;26.644;2024-02-28T12:53:07;99503.47;;;18.92;37.66